»·PEaware :: N797ST KSNA-KSNA

N797ST :: KSNA-KSNA

FLIGHT INFORMATION

Flight Status: Arrived
Operator: Privately registered:
United States
More flights under this callsign
Pilot: Anonymous 27925 (27925)
Aircraft: CESSNA 172 SKYHAWK
(C172)
More flights by this aircraft type
Origin: KSNA John Wayne-Orange Co
United States
Destination: KSNA John Wayne-Orange Co
United States
More flights between these airports :: More routes between these airports
Route: +
File this flight plan on PilotEdge
Remarks:
Altitude:
(Current/Filed)
0ft
Speed:
(Current/Filed)
0kts
Departed: 11-Feb-20 04:34 PM
Arrived: 11-Feb-20 05:17 PM
Distance/Time
Traveled:
0nm/0:42
Distance/Time
To Go:
Arrived

Flight Plot

Page will automatically refresh every two minutes.


Map Options




Map Legend


Flown Route
Filed Route
Departure Airport
Arrival Airport
Navaid (VOR, NDB)
Fix

Horizontal Profiles

Position Reports

Time Latitude Longitude Heading Altitude Ground
Speed
11-Feb-20 16:26 33.667271 -117.870943 41 60ft 0kts
11-Feb-20 16:27 33.667852 -117.871438 308 60ft 0kts
11-Feb-20 16:28 33.669168 -117.870885 40 60ft 22kts
11-Feb-20 16:29 33.673415 -117.867537 41 60ft 0kts
11-Feb-20 16:30 33.673635 -117.867397 25 60ft 13kts
11-Feb-20 16:31 33.679067 -117.863968 28 60ft 17kts
11-Feb-20 16:32 33.680014 -117.863652 296 60ft 0kts
11-Feb-20 16:33 33.669829 -117.869315 185 455ft 76kts
11-Feb-20 16:34 33.659807 -117.856299 63 1409ft 86kts
11-Feb-20 16:35 33.659202 -117.829178 93 2053ft 81kts
11-Feb-20 16:36 33.657567 -117.800466 91 2400ft 97kts
11-Feb-20 16:37 33.656800 -117.767801 98 3229ft 100kts
11-Feb-20 16:38 33.647538 -117.735975 122 3962ft 102kts
11-Feb-20 16:39 33.639123 -117.703705 98 3997ft 100kts
11-Feb-20 16:40 33.628572 -117.670955 121 3064ft 100kts
11-Feb-20 16:41 33.626856 -117.643718 359 3009ft 101kts
11-Feb-20 16:42 33.631659 -117.650750 261 3036ft 97kts
11-Feb-20 16:43 33.631659 -117.650750 261 3036ft 97kts
11-Feb-20 16:44 33.631659 -117.650750 261 3036ft 97kts
11-Feb-20 16:45 33.631659 -117.650750 261 3036ft 97kts
11-Feb-20 16:46 33.631659 -117.650750 261 3036ft 97kts
11-Feb-20 16:47 33.631659 -117.650750 261 3036ft 97kts
11-Feb-20 16:48 33.631659 -117.650750 261 3036ft 97kts
11-Feb-20 16:49 33.631659 -117.650750 261 3036ft 97kts
11-Feb-20 16:50 33.631659 -117.650750 261 3036ft 97kts
11-Feb-20 16:51 33.631659 -117.650750 261 3036ft 97kts
11-Feb-20 16:52 33.631659 -117.650750 261 3036ft 97kts
11-Feb-20 16:53 33.631659 -117.650750 261 3036ft 97kts
11-Feb-20 16:54 33.631659 -117.650750 261 3036ft 97kts
11-Feb-20 16:55 33.631659 -117.650750 261 3036ft 97kts
11-Feb-20 16:56 33.631659 -117.650750 261 3036ft 97kts
11-Feb-20 16:57 33.631659 -117.650750 261 3036ft 97kts
11-Feb-20 16:58 33.631659 -117.650750 261 3036ft 97kts
11-Feb-20 16:59 33.631659 -117.650750 261 3036ft 97kts
11-Feb-20 17:00 33.627495 -117.672148 256 2937ft 96kts
11-Feb-20 17:01 33.627495 -117.672148 256 2937ft 96kts
11-Feb-20 17:02 33.627495 -117.672148 256 2937ft 96kts
11-Feb-20 17:03 33.627495 -117.672148 256 2937ft 96kts
11-Feb-20 17:04 33.627495 -117.672148 256 2937ft 96kts
11-Feb-20 17:05 33.627495 -117.672148 256 2937ft 96kts
11-Feb-20 17:06 33.626289 -117.678279 256 2925ft 93kts
11-Feb-20 17:07 33.622475 -117.709613 259 2730ft 96kts
11-Feb-20 17:08 33.617585 -117.740975 258 2727ft 95kts
11-Feb-20 17:09 33.613167 -117.772806 266 2657ft 99kts
11-Feb-20 17:10 33.615997 -117.805259 301 2403ft 96kts
11-Feb-20 17:11 33.634330 -117.828217 317 1948ft 95kts
11-Feb-20 17:12 33.654669 -117.847383 320 1293ft 89kts
11-Feb-20 17:13 33.672854 -117.853877 31 664ft 80kts
11-Feb-20 17:14 33.689969 -117.848701 301 454ft 67kts
11-Feb-20 17:15 33.681537 -117.863238 207 85ft 52kts
11-Feb-20 17:17 33.676855 -117.865643 115 60ft 5kts
11-Feb-20 17:18 33.672856 -117.867575 224 60ft 19kts
11-Feb-20 17:19 33.669125 -117.870928 220 60ft 19kts

Navigation Log

Ident Type
Flight plan parsing failed, navigation log unavailable